Time;durP1;ratioP1;P1;durP2;ratioP2;P2;SDS_P1;SDS_P2;PMS_P1;PMS_P2;Temp;Humidity;BMP_temperature;BMP_pressure;BME280_temperature;BME280_humidity;BME280_pressure;Samples;Min_cycle;Max_cycle;Signal;HPM_P1;HPM_P2
2022/11/06 00:02:11;;;;;;;7.38;3.72;;;;;;;6.72;88.06;100982.47;6121956;23;20057;-77
2022/11/06 00:08:42;;;;;;;7.25;3.90;;;;;;;6.75;88.18;100977.19;6121824;23;20032;-77
2022/11/06 00:11:46;;;;;;;7.28;3.40;;;;;;;6.77;88.17;100976.31;6121862;23;20076;-76
2022/11/06 00:14:50;;;;;;;11.48;3.17;;;;;;;6.69;89.16;100964.38;6122174;23;20072;-76
2022/11/06 00:17:53;;;;;;;;;;;;;;;6.83;87.82;100968.31;6122356;23;20076;-76
2022/11/06 00:20:56;;;;;;;10.90;6.32;;;;;;;6.83;87.86;100957.91;6121834;23;19963;-77
2022/11/06 00:24:01;;;;;;;9.00;4.47;;;;;;;6.80;88.32;100958.03;6121629;23;20060;-77
2022/11/06 00:27:05;;;;;;;5.88;3.40;;;;;;;6.79;88.54;100946.75;6121603;23;20044;-77
2022/11/06 00:30:10;;;;;;;;;;;;;;;6.81;88.71;100944.13;6104336;23;20111;-77
2022/11/06 00:33:13;;;;;;;6.25;2.83;;;;;;;6.81;88.73;100938.94;6121671;23;19962;-78
2022/11/06 00:36:20;;;;;;;11.23;3.20;;;;;;;6.93;88.22;100943.78;6121710;23;20075;-78
2022/11/06 00:39:23;;;;;;;7.63;3.53;;;;;;;6.87;88.55;100936.16;6146668;23;20025;-76
2022/11/06 00:42:27;;;;;;;;;;;;;;;6.89;88.31;100929.13;6151536;23;20028;-76
2022/11/06 00:45:30;;;;;;;9.07;4.28;;;;;;;6.77;88.18;100932.97;6151119;23;19961;-76
2022/11/06 00:48:34;;;;;;;8.18;2.97;;;;;;;6.80;88.12;100934.66;6150977;23;20109;-77
2022/11/06 00:51:38;;;;;;;10.40;4.10;;;;;;;6.68;88.31;100936.69;6150934;23;20367;-77
2022/11/06 00:54:42;;;;;;;7.60;3.10;;;;;;;6.65;88.03;100939.38;6150926;23;20466;-77
2022/11/06 00:57:48;;;;;;;;;;;;;;;6.65;87.97;100954.97;6151259;23;20021;-76
2022/11/06 01:00:51;;;;;;;10.98;3.53;;;;;;;6.64;87.81;100942.03;6149716;23;19919;-77
2022/11/06 01:04:01;;;;;;;13.05;3.92;;;;;;;6.63;88.13;100950.72;6150832;23;20139;-77
2022/11/06 01:07:06;;;;;;;10.13;4.78;;;;;;;6.51;87.60;100941.56;6150725;23;20024;-77
2022/11/06 01:10:09;;;;;;;6.93;3.40;;;;;;;6.44;87.33;100937.41;6150793;23;20028;-77
2022/11/06 01:13:12;;;;;;;6.55;3.17;;;;;;;6.36;88.01;100936.78;6150571;23;20024;-77
2022/11/06 01:16:16;;;;;;;7.97;2.50;;;;;;;6.36;88.17;100936.78;6150756;23;20106;-77
2022/11/06 01:19:20;;;;;;;;;;;;;;;6.27;87.30;100946.53;6151144;23;20581;-76
2022/11/06 01:22:23;;;;;;;5.97;3.83;;;;;;;6.34;87.92;100951.53;6150690;23;19935;-76
2022/11/06 01:25:26;;;;;;;11.13;4.40;;;;;;;6.36;87.44;100948.03;6150660;23;20131;-77
2022/11/06 01:28:30;;;;;;;10.45;5.30;;;;;;;6.49;87.10;100946.78;6150290;23;20051;-77
2022/11/06 01:31:34;;;;;;;7.35;3.00;;;;;;;6.45;87.84;100941.72;6150614;23;20105;-77
2022/11/06 01:34:37;;;;;;;8.38;3.35;;;;;;;6.36;88.23;100931.59;6150887;23;20265;-77
2022/11/06 01:37:41;;;;;;;;;;;;;;;6.42;88.22;100942.66;6152413;23;20024;-77
2022/11/06 01:40:45;;;;;;;;;;;;;;;6.56;87.30;100944.00;6152547;23;19911;-76
2022/11/06 01:44:02;;;;;;;9.75;3.15;;;;;;;6.56;87.35;100944.84;6151975;23;19915;-77
2022/11/06 01:47:35;;;;;;;8.77;3.50;;;;;;;6.47;87.95;100935.56;6151940;23;20028;-76
2022/11/06 01:50:41;;;;;;;10.98;3.90;;;;;;;6.46;87.97;100935.63;6151932;23;20029;-76
2022/11/06 01:53:45;;;;;;;9.75;3.33;;;;;;;6.33;88.20;100937.72;6152330;23;20056;-77
2022/11/06 01:56:52;;;;;;;7.50;2.95;;;;;;;6.45;88.30;100933.94;6152000;23;20393;-77
2022/11/06 01:59:55;;;;;;;10.52;3.50;;;;;;;6.34;89.44;100928.16;6151960;23;20025;-76
2022/11/06 02:03:00;;;;;;;6.15;3.72;;;;;;;6.15;89.99;100927.81;6151936;23;20067;-77
2022/11/06 02:06:03;;;;;;;8.45;3.17;;;;;;;6.36;89.05;100926.41;6151948;23;20075;-76
2022/11/06 02:09:11;;;;;;;;;;;;;;;6.52;88.43;100922.47;6152288;23;20033;-76
2022/11/06 02:12:37;;;;;;;9.90;3.95;;;;;;;6.61;87.94;100922.19;6151800;23;20254;-77
2022/11/06 02:15:57;;;;;;;8.95;4.28;;;;;;;6.47;89.14;100913.94;6151889;23;20024;-77
2022/11/06 02:19:22;;;;;;;6.55;3.38;;;;;;;6.29;90.06;100910.97;6151865;23;20025;-77
2022/11/06 02:22:47;;;;;;;7.00;3.28;;;;;;;6.45;90.09;100910.56;6151841;23;20516;-77
2022/11/06 02:26:17;;;;;;;6.57;3.05;;;;;;;6.58;89.20;100901.50;6133735;23;20096;-77
2022/11/06 02:29:28;;;;;;;8.20;3.20;;;;;;;6.56;89.36;100899.84;6151741;23;20060;-77
2022/11/06 02:33:05;;;;;;;5.35;2.50;;;;;;;6.80;88.69;100890.47;6151760;23;20136;-76
2022/11/06 02:36:36;;;;;;;6.82;2.85;;;;;;;6.81;87.83;100887.78;6151782;23;20028;-77
2022/11/06 02:39:43;;;;;;;10.00;3.30;;;;;;;6.57;89.01;100899.78;6116517;23;20047;-77
2022/11/06 02:43:19;;;;;;;6.15;3.28;;;;;;;6.66;89.10;100893.47;6151405;23;20051;-77
2022/11/06 02:47:00;;;;;;;9.52;3.28;;;;;;;6.86;88.19;100900.63;6138715;23;20056;-77
2022/11/06 02:50:30;;;;;;;5.55;3.13;;;;;;;6.75;89.27;100904.41;6151771;23;20032;-77
2022/11/06 02:53:37;;;;;;;10.07;3.80;;;;;;;6.86;88.36;100903.25;6151759;23;20078;-76
2022/11/06 02:56:44;;;;;;;10.32;3.50;;;;;;;6.76;89.48;100900.06;6151676;23;20090;-77
2022/11/06 03:00:17;;;;;;;8.85;3.33;;;;;;;6.98;88.68;100900.25;6151720;23;20024;-77
2022/11/06 03:03:27;;;;;;;8.57;3.10;;;;;;;6.85;88.59;100879.00;6151642;23;20028;-76
2022/11/06 03:06:45;;;;;;;10.45;3.15;;;;;;;6.88;88.77;100883.25;6151657;23;20086;-77
2022/11/06 03:09:49;;;;;;;6.97;3.25;;;;;;;6.80;89.00;100874.88;6151673;23;20024;-76
2022/11/06 03:12:56;;;;;;;;;;;;;;;6.68;89.34;100876.94;6152056;23;20028;-76
2022/11/06 03:16:16;;;;;;;8.88;3.72;;;;;;;6.63;89.16;100872.75;6151577;23;19915;-77
2022/11/06 03:19:25;;;;;;;8.75;3.38;;;;;;;6.58;88.97;100875.50;6151597;23;20021;-76
2022/11/06 03:22:39;;;;;;;10.63;3.50;;;;;;;6.55;89.56;100873.00;6151573;23;20028;-76
2022/11/06 03:26:00;;;;;;;7.72;3.47;;;;;;;6.51;88.80;100881.78;6151519;23;20365;-76
2022/11/06 03:29:22;;;;;;;14.80;3.13;;;;;;;6.51;88.76;100879.19;6151275;23;20024;-76
2022/11/06 03:32:33;;;;;;;5.60;3.28;;;;;;;6.36;88.83;100884.84;6151495;23;20098;-76
2022/11/06 03:36:06;;;;;;;7.38;2.88;;;;;;;6.26;88.64;100873.88;6133455;23;20024;-76
2022/11/06 03:39:26;;;;;;;6.55;2.40;;;;;;;6.31;88.80;100865.94;6151327;23;20032;-75
2022/11/06 03:42:29;;;;;;;8.43;2.97;;;;;;;6.21;89.21;100863.59;6151416;23;20028;-76
2022/11/06 03:45:35;;;;;;;9.02;2.90;;;;;;;6.30;88.14;100859.88;6151479;23;20028;-76
2022/11/06 03:48:52;;;;;;;5.78;2.58;;;;;;;6.21;89.07;100855.81;6151381;23;20079;-76
2022/11/06 03:52:00;;;;;;;7.28;3.10;;;;;;;6.27;89.59;100860.81;6151475;23;20040;-76
2022/11/06 03:55:17;;;;;;;8.60;3.55;;;;;;;6.34;89.62;100858.03;6151417;23;20055;-77
2022/11/06 03:58:29;;;;;;;10.65;3.05;;;;;;;6.36;89.73;100862.31;6150964;23;20074;-76
2022/11/06 04:01:41;;;;;;;11.55;3.50;;;;;;;6.44;89.15;100857.72;6151352;23;20406;-77
2022/11/06 04:04:56;;;;;;;5.93;2.90;;;;;;;6.46;89.72;100857.69;6151398;23;20090;-77
2022/11/06 04:14:50;;;;;;;13.85;3.58;;;;;;;6.59;89.39;100886.75;6151275;23;20074;-77
2022/11/06 04:17:53;;;;;;;9.43;4.78;;;;;;;6.52;89.52;100880.88;6151305;23;20052;-78
2022/11/06 04:21:24;;;;;;;7.53;3.78;;;;;;;6.61;88.89;100895.38;6151232;23;20056;-77
2022/11/06 04:28:26;;;;;;;7.60;2.97;;;;;;;6.42;88.78;100888.09;6151044;23;20029;-76
2022/11/06 04:31:34;;;;;;;7.25;3.10;;;;;;;6.33;88.81;100893.56;6151105;23;20025;-76
2022/11/06 04:34:59;;;;;;;5.55;2.80;;;;;;;6.21;88.79;100875.72;6151127;23;20070;-76
2022/11/06 04:38:26;;;;;;;4.47;3.10;;;;;;;6.05;89.92;100896.94;6133017;23;20029;-77
2022/11/06 04:41:45;;;;;;;5.80;4.03;;;;;;;6.25;88.47;100899.00;6150985;23;20028;-76
2022/11/06 04:44:54;;;;;;;9.35;3.90;;;;;;;6.07;88.44;100899.50;6150871;23;20064;-77
2022/11/06 04:47:58;;;;;;;8.38;2.67;;;;;;;6.02;89.05;100901.34;6150877;23;20084;-77
2022/11/06 04:51:07;;;;;;;6.30;3.13;;;;;;;6.10;87.72;100894.22;6150977;23;20368;-77
2022/11/06 04:54:11;;;;;;;11.73;3.35;;;;;;;6.21;88.06;100892.16;6150098;23;20024;-77
2022/11/06 04:57:20;;;;;;;7.07;3.70;;;;;;;6.10;88.17;100894.22;6148900;23;20050;-77
2022/11/06 05:00:23;;;;;;;10.95;4.50;;;;;;;6.08;88.15;100879.56;6150891;23;20075;-78
2022/11/06 05:03:27;;;;;;;7.93;3.10;;;;;;;6.08;88.28;100882.16;6150907;23;20082;-78
2022/11/06 05:06:30;;;;;;;14.15;3.60;;;;;;;5.97;88.51;100874.69;6150872;23;20036;-78
2022/11/06 05:09:33;;;;;;;10.68;3.15;;;;;;;6.03;88.09;100869.31;6150761;23;20086;-77
2022/11/06 05:12:38;;;;;;;9.48;4.10;;;;;;;5.95;88.54;100863.50;6149861;23;20159;-77
2022/11/06 05:15:41;;;;;;;;;;;;;;;5.94;89.03;100869.59;6150801;23;20101;-77
2022/11/06 05:18:44;;;;;;;11.35;4.97;;;;;;;5.95;88.95;100869.53;6150428;23;20261;-77
2022/11/06 05:25:16;;;;;;;6.50;3.83;;;;;;;5.73;90.58;100864.03;6152062;23;20292;-77
2022/11/06 05:28:19;;;;;;;8.63;4.47;;;;;;;5.81;91.37;100854.31;6151815;23;20059;-78
2022/11/06 05:31:23;;;;;;;;;;;;;;;5.66;91.55;100851.28;6152632;23;20029;-78
2022/11/06 05:34:27;;;;;;;32.10;4.32;;;;;;;5.51;92.00;100847.34;6152112;23;19916;-78
2022/11/06 05:37:30;;;;;;;15.68;3.05;;;;;;;5.63;91.02;100847.03;6151831;23;20024;-78
2022/11/06 05:40:33;;;;;;;;;;;;;;;5.67;90.34;100843.44;6152579;23;20072;-78
2022/11/06 05:43:36;;;;;;;29.67;15.83;;;;;;;5.71;89.84;100828.63;6152126;23;20340;-78
2022/11/06 05:46:39;;;;;;;10.77;7.03;;;;;;;5.58;91.55;100830.72;6152040;23;20074;-77
2022/11/06 05:49:43;;;;;;;;;;;;;;;5.61;91.15;100833.22;6152546;23;20101;-77
2022/11/06 05:52:46;;;;;;;9.67;3.80;;;;;;;5.76;91.08;100811.22;6151935;23;19916;-77
2022/11/06 05:55:49;;;;;;;9.82;4.40;;;;;;;5.78;90.86;100797.31;6152327;23;20310;-77
2022/11/06 05:58:52;;;;;;;29.27;5.45;;;;;;;5.79;90.73;100804.19;6151924;23;20087;-77
2022/11/06 06:01:57;;;;;;;9.68;4.07;;;;;;;5.58;90.83;100807.38;6134022;23;20104;-77
2022/11/06 06:05:00;;;;;;;26.33;6.25;;;;;;;5.78;90.71;100805.09;6151893;23;20028;-77
2022/11/06 06:08:13;;;;;;;14.13;8.07;;;;;;;5.85;89.55;100794.53;6151744;23;20025;-77
2022/11/06 06:12:01;;;;;;;21.42;6.55;;;;;;;5.58;91.21;100779.72;6151865;23;20441;-77
2022/11/06 06:15:41;;;;;;;21.95;4.78;;;;;;;5.62;91.33;100772.69;6127787;23;20516;-78
2022/11/06 06:18:47;;;;;;;7.30;4.65;;;;;;;5.68;90.65;100767.34;6151896;23;20147;-77
2022/11/06 06:21:50;;;;;;;13.95;4.13;;;;;;;5.55;89.61;100771.13;6151643;23;20470;-77
2022/11/06 06:24:53;;;;;;;23.80;9.25;;;;;;;5.57;89.79;100761.56;6151884;23;20091;-78
2022/11/06 06:27:57;;;;;;;;;;;;;;;5.47;89.41;100760.13;6152020;23;20079;-79
2022/11/06 06:31:04;;;;;;;9.23;3.78;;;;;;;5.55;89.85;100755.56;6151850;23;20300;-78
2022/11/06 06:34:08;;;;;;;13.52;3.75;;;;;;;5.56;89.38;100752.94;6134025;23;20036;-78
2022/11/06 06:37:11;;;;;;;10.63;4.13;;;;;;;5.31;90.97;100754.50;6151729;23;20036;-78
2022/11/06 06:40:14;;;;;;;;;;;;;;;5.54;90.06;100770.28;6122874;23;20032;-78
2022/11/06 06:43:19;;;;;;;;;;;;;;;5.46;89.95;100763.63;6122946;23;19916;-78
2022/11/06 06:46:23;;;;;;;29.58;3.97;;;;;;;5.40;90.53;100761.19;6121112;23;19956;-77
2022/11/06 06:49:28;;;;;;;12.52;3.50;;;;;;;5.44;90.10;100762.81;6122196;23;20032;-77
2022/11/06 06:52:31;;;;;;;18.13;4.05;;;;;;;5.43;89.72;100764.56;6122252;23;20073;-78
2022/11/06 06:55:34;;;;;;;;;;;;;;;5.40;89.98;100758.59;6122789;23;20030;-78
2022/11/06 06:58:37;;;;;;;6.55;2.58;;;;;;;5.52;89.06;100750.47;6122286;23;19920;-78
2022/11/06 07:01:41;;;;;;;14.70;3.22;;;;;;;5.48;88.97;100760.06;6122289;23;20076;-78
2022/11/06 07:04:44;;;;;;;10.23;3.58;;;;;;;5.53;88.44;100765.16;6121320;23;20168;-78
2022/11/06 07:07:48;;;;;;;6.30;3.63;;;;;;;5.53;88.05;100762.56;6122197;23;20466;-78
2022/11/06 07:10:51;;;;;;;8.30;3.60;;;;;;;5.60;87.48;100761.50;6122203;23;20076;-77
2022/11/06 07:13:55;;;;;;;7.65;3.47;;;;;;;5.64;87.70;100767.44;6122256;23;20048;-77
2022/11/06 07:16:58;;;;;;;14.70;4.18;;;;;;;5.53;88.22;100763.41;6122182;23;20033;-78
2022/11/06 07:20:03;;;;;;;;;;;;;;;5.65;87.53;100756.16;6120346;23;20071;-78
2022/11/06 07:23:07;;;;;;;11.10;4.38;;;;;;;5.53;87.87;100762.56;6120032;23;19915;-77
2022/11/06 07:26:11;;;;;;;7.30;3.90;;;;;;;5.48;87.91;100754.03;6119859;23;20076;-77
2022/11/06 07:29:14;;;;;;;;;;;;;;;5.61;87.79;100758.00;6121062;23;20029;-78
2022/11/06 07:32:18;;;;;;;11.90;4.63;;;;;;;5.62;87.54;100757.13;6121459;23;19938;-75
2022/11/06 07:35:21;;;;;;;;;;;;;;;5.55;88.58;100761.63;6121773;23;20124;-75
2022/11/06 07:38:24;;;;;;;10.70;3.65;;;;;;;5.46;88.90;100774.84;6134852;23;19920;-75
2022/11/06 07:41:38;;;;;;;6.47;3.67;;;;;;;5.45;88.11;100782.66;6151279;23;20101;-76
2022/11/06 07:44:48;;;;;;;28.23;4.28;;;;;;;5.42;88.41;100778.41;6134956;23;20060;-76
2022/11/06 07:47:55;;;;;;;6.03;3.65;;;;;;;5.32;89.27;100785.56;6151358;23;20347;-74
2022/11/06 07:51:01;;;;;;;7.18;4.63;;;;;;;5.47;89.65;100781.72;6151402;23;20469;-75
2022/11/06 07:54:04;;;;;;;7.32;5.30;;;;;;;5.51;90.06;100780.75;6133803;23;20056;-75
2022/11/06 07:57:08;;;;;;;13.45;4.22;;;;;;;5.45;89.60;100785.25;6151133;23;20082;-74
2022/11/06 08:00:11;;;;;;;9.38;3.72;;;;;;;5.61;89.20;100778.75;6151366;23;20079;-75
2022/11/06 08:03:18;;;;;;;6.70;3.30;;;;;;;5.58;88.99;100777.13;6151359;23;20071;-75
2022/11/06 08:06:21;;;;;;;10.32;3.22;;;;;;;5.59;89.21;100767.59;6151363;23;20032;-76
2022/11/06 08:09:25;;;;;;;6.47;3.40;;;;;;;5.59;89.50;100763.25;6151322;23;20227;-74
2022/11/06 08:12:28;;;;;;;;;;;;;;;5.66;88.73;100765.66;6151689;23;20036;-77
2022/11/06 08:15:32;;;;;;;8.57;3.17;;;;;;;5.70;88.86;100759.50;6148911;23;19961;-75
2022/11/06 08:18:37;;;;;;;6.95;2.33;;;;;;;5.77;88.44;100756.66;6151251;23;20083;-74
2022/11/06 08:21:40;;;;;;;3.10;2.10;;;;;;;5.89;87.00;100749.44;6133500;23;20373;-76
2022/11/06 08:24:43;;;;;;;3.70;1.98;;;;;;;5.81;87.71;100752.25;6151240;23;20029;-78
2022/11/06 08:27:47;;;;;;;3.35;2.25;;;;;;;5.78;87.81;100747.16;6151018;23;20024;-73
2022/11/06 08:30:50;;;;;;;6.03;2.20;;;;;;;5.71;87.81;100751.69;6151134;23;20091;-75
2022/11/06 08:33:53;;;;;;;3.25;2.28;;;;;;;5.67;87.78;100742.25;6150380;23;20453;-74
2022/11/06 08:36:56;;;;;;;;;;;;;;;5.76;87.40;100734.22;6151580;23;20086;-75
2022/11/06 09:02:49;;;;;;;4.85;2.78;;;;;;;5.96;90.75;100710.28;5053518;28;20045;-75
2022/11/06 09:06:11;;;;;;;4.68;2.70;;;;;;;6.08;90.62;100693.50;5064386;28;20044;-75
2022/11/06 09:09:16;;;;;;;5.05;3.15;;;;;;;6.21;90.93;100684.44;5029568;28;20042;-76
2022/11/06 09:12:19;;;;;;;6.97;3.65;;;;;;;6.27;90.86;100678.19;5030717;28;20101;-76
2022/11/06 09:15:22;;;;;;;;;;;;;;;6.36;90.87;100675.31;5031960;28;20532;-76
2022/11/06 09:18:26;;;;;;;6.72;3.72;;;;;;;6.60;90.41;100675.38;5032774;28;19937;-77
2022/11/06 09:21:30;;;;;;;6.18;3.15;;;;;;;6.57;91.29;100671.13;5049322;28;20056;-77
2022/11/06 09:24:33;;;;;;;9.20;3.92;;;;;;;6.66;92.33;100663.03;5062365;28;20040;-77
2022/11/06 09:27:45;;;;;;;6.28;3.45;;;;;;;6.82;92.32;100652.13;5045480;28;20044;-77
2022/11/06 09:30:49;;;;;;;6.15;3.45;;;;;;;6.89;91.79;100646.69;5016127;28;20474;-77
2022/11/06 09:33:53;;;;;;;8.43;3.40;;;;;;;6.94;93.22;100636.94;5028235;28;20807;-77
2022/11/06 09:36:56;;;;;;;7.82;4.25;;;;;;;7.05;92.51;100630.50;5041178;28;20047;-78
2022/11/06 09:40:02;;;;;;;8.60;3.42;;;;;;;7.18;92.56;100632.63;5067178;28;20145;-78
2022/11/06 09:43:40;;;;;;;7.28;4.10;;;;;;;7.29;92.72;100626.19;5037459;28;20061;-78
2022/11/06 09:46:46;;;;;;;9.55;3.72;;;;;;;7.47;92.72;100628.09;5026683;28;20526;-77
2022/11/06 09:49:52;;;;;;;8.82;4.03;;;;;;;7.59;92.49;100622.41;5045702;28;20104;-77
2022/11/06 09:53:02;;;;;;;6.57;3.50;;;;;;;7.83;93.25;100609.38;5047653;28;20083;-77
2022/11/06 09:56:11;;;;;;;7.68;3.47;;;;;;;7.99;91.86;100605.25;5045099;28;20125;-77
2022/11/06 09:59:18;;;;;;;7.47;3.60;;;;;;;8.19;91.89;100606.19;4998337;28;20044;-78
2022/11/06 10:02:50;;;;;;;8.40;3.25;;;;;;;8.38;90.51;100599.34;5032898;28;20048;-77
2022/11/06 10:05:54;;;;;;;7.25;2.92;;;;;;;8.43;88.87;100594.78;5016510;28;20069;-77
2022/11/06 10:09:01;;;;;;;6.10;2.78;;;;;;;8.66;88.82;100590.34;5013080;28;20057;-77
2022/11/06 10:12:49;;;;;;;8.23;2.90;;;;;;;8.88;87.70;100587.66;5013079;28;20106;-77
2022/11/06 10:16:41;;;;;;;8.85;3.10;;;;;;;8.92;91.09;100587.44;4944723;28;20050;-78
2022/11/06 10:20:11;;;;;;;5.68;2.53;;;;;;;8.89;97.16;100590.19;5022396;28;20044;-77
2022/11/06 10:28:47;;;;;;;8.32;2.30;;;;;;;9.07;91.66;100568.50;4936715;29;20046;-77
2022/11/06 10:36:19;;;;;;;6.68;1.80;;;;;;;9.18;84.97;100560.19;5043252;28;20052;-78
2022/11/06 10:39:27;;;;;;;6.00;1.33;;;;;;;9.29;73.69;100555.31;5053286;28;20044;-77
2022/11/06 10:42:39;;;;;;;5.90;1.20;;;;;;;9.41;70.67;100547.81;5055032;28;20799;-77
2022/11/06 10:45:49;;;;;;;7.25;1.85;;;;;;;9.45;75.19;100550.22;5040625;28;20274;-77
2022/11/06 10:49:04;;;;;;;10.00;2.20;;;;;;;9.54;73.46;100534.13;5012414;28;20365;-77
2022/11/06 10:52:29;;;;;;;4.93;1.40;;;;;;;9.52;79.83;100528.13;5010716;28;20191;-77
2022/11/06 10:55:58;;;;;;;6.03;1.23;;;;;;;9.49;75.50;100512.63;5033423;28;20071;-77
2022/11/06 10:59:01;;;;;;;4.10;1.20;;;;;;;9.61;75.12;100512.97;5033883;28;20064;-77
2022/11/06 11:02:23;;;;;;;4.50;0.80;;;;;;;9.88;67.46;100505.53;5050550;28;20099;-77
2022/11/06 11:05:41;;;;;;;4.72;1.20;;;;;;;10.13;65.92;100489.47;5051937;28;20044;-77
2022/11/06 11:08:48;;;;;;;4.82;1.25;;;;;;;10.27;63.83;100465.28;5051627;28;20427;-77
2022/11/06 11:11:51;;;;;;;5.90;1.17;;;;;;;10.41;62.39;100463.63;5039033;28;20048;-77
2022/11/06 11:15:16;;;;;;;3.33;1.02;;;;;;;10.52;71.63;100464.84;5043685;28;20044;-77
2022/11/06 11:18:33;;;;;;;6.40;1.30;;;;;;;10.67;69.82;100450.94;5032410;28;20127;-77
2022/11/06 11:21:37;;;;;;;4.43;1.20;;;;;;;10.79;68.03;100437.22;5039588;28;20075;-77
2022/11/06 11:25:06;;;;;;;4.68;1.90;;;;;;;10.73;63.65;100415.78;5055548;28;20040;-77
2022/11/06 11:28:32;;;;;;;2.70;1.20;;;;;;;10.80;65.47;100410.13;5055002;28;20110;-76
2022/11/06 11:31:36;;;;;;;4.60;1.30;;;;;;;10.78;63.80;100408.50;5014814;28;20055;-77
2022/11/06 11:34:50;;;;;;;5.25;1.92;;;;;;;10.71;62.66;100392.31;5013247;28;20065;-76
2022/11/06 11:38:24;;;;;;;3.90;1.30;;;;;;;10.89;64.82;100386.06;5017834;28;20068;-76
2022/11/06 11:41:27;;;;;;;5.75;1.60;;;;;;;10.97;65.43;100380.41;5039543;28;20076;-77
2022/11/06 11:44:32;;;;;;;2.97;1.35;;;;;;;10.75;61.28;100369.44;5058647;28;20048;-78
2022/11/06 11:47:40;;;;;;;4.78;1.73;;;;;;;10.86;61.61;100381.00;5054600;28;20216;-77
2022/11/06 11:50:44;;;;;;;3.90;1.80;;;;;;;10.83;61.40;100386.41;5040371;28;20076;-78
2022/11/06 11:53:48;;;;;;;5.68;2.08;;;;;;;10.86;61.44;100381.00;5046982;28;20056;-77
2022/11/06 11:57:19;;;;;;;4.22;2.13;;;;;;;10.85;61.29;100360.19;5048289;28;20061;-79
2022/11/06 12:00:27;;;;;;;3.95;2.50;;;;;;;10.66;61.31;100349.91;5013112;28;20487;-77
2022/11/06 12:03:40;;;;;;;6.15;1.90;;;;;;;10.84;62.69;100364.53;5023428;28;20059;-76
2022/11/06 12:06:55;;;;;;;5.75;2.60;;;;;;;10.74;61.39;100354.69;5050873;28;20102;-77
2022/11/06 12:09:59;;;;;;;;;;;;;;;10.68;61.75;100350.63;5050932;28;20070;-78
2022/11/06 12:13:12;;;;;;;8.20;2.97;;;;;;;10.76;62.92;100335.38;5036299;28;19936;-77
2022/11/06 12:16:19;;;;;;;5.38;2.28;;;;;;;10.67;62.88;100351.56;5030830;28;20048;-77
2022/11/06 12:19:27;;;;;;;5.40;2.05;;;;;;;10.54;62.17;100354.03;5010007;28;20100;-78
2022/11/06 12:22:39;;;;;;;5.80;2.30;;;;;;;10.44;62.53;100358.91;5034881;28;20040;-77
2022/11/06 12:25:58;;;;;;;3.80;2.20;;;;;;;10.57;63.05;100363.47;5054088;28;20052;-77
2022/11/06 12:29:22;;;;;;;4.68;2.17;;;;;;;10.47;61.76;100345.69;5054294;28;20076;-77
2022/11/06 12:32:25;;;;;;;;;;;;;;;10.63;62.53;100339.63;5043337;28;20075;-77
2022/11/06 12:35:33;;;;;;;4.80;1.90;;;;;;;10.81;62.73;100322.88;5054899;28;20266;-77
2022/11/06 12:38:49;;;;;;;4.70;1.77;;;;;;;10.92;62.61;100307.44;5053349;28;20075;-78
2022/11/06 12:41:56;;;;;;;6.60;2.63;;;;;;;11.07;63.63;100304.84;5040222;28;20096;-78
2022/11/06 12:45:15;;;;;;;6.30;3.70;;;;;;;11.09;63.61;100298.59;5042023;28;20056;-79
2022/11/06 12:48:40;;;;;;;5.18;2.17;;;;;;;11.02;62.79;100288.59;5011302;28;20076;-79
2022/11/06 12:52:04;;;;;;;7.10;2.92;;;;;;;10.94;62.72;100296.84;5035698;28;20516;-79
2022/11/06 12:55:19;;;;;;;7.93;3.08;;;;;;;11.00;62.78;100283.44;5035074;28;20040;-78
2022/11/06 12:58:52;;;;;;;5.50;2.20;;;;;;;10.68;62.15;100266.97;5040520;28;20047;-78
2022/11/06 13:02:22;;;;;;;4.53;2.60;;;;;;;10.65;63.20;100273.19;5035602;28;20036;-78
2022/11/06 13:05:37;;;;;;;7.90;3.47;;;;;;;10.50;62.78;100261.03;5034983;28;20144;-80
2022/11/06 13:09:11;;;;;;;7.25;2.72;;;;;;;10.62;63.69;100267.31;5033168;28;20060;-79
2022/11/06 13:12:37;;;;;;;7.57;2.78;;;;;;;10.48;63.53;100258.47;5033568;28;20088;-78
2022/11/06 13:15:50;;;;;;;3.53;1.85;;;;;;;10.14;61.62;100253.41;5034014;28;20056;-77
2022/11/06 13:19:21;;;;;;;5.10;2.67;;;;;;;10.22;61.28;100232.94;5033654;28;20072;-76
2022/11/06 13:22:56;;;;;;;3.47;1.60;;;;;;;10.32;62.06;100244.59;5033620;28;20047;-76
2022/11/06 13:26:38;;;;;;;6.57;2.25;;;;;;;10.14;64.01;100235.94;4993840;28;20129;-77
2022/11/06 13:29:43;;;;;;;3.63;1.63;;;;;;;10.17;65.92;100225.31;4993623;28;20437;-79
2022/11/06 13:33:00;;;;;;;5.82;2.50;;;;;;;10.14;65.39;100235.09;4991817;28;20058;-78
2022/11/06 13:36:06;;;;;;;6.07;2.72;;;;;;;9.91;65.71;100231.97;4997380;28;20126;-78
2022/11/06 13:39:35;;;;;;;7.57;2.72;;;;;;;10.14;66.13;100245.56;4996435;28;20045;-77
2022/11/06 13:42:48;;;;;;;5.72;2.83;;;;;;;10.01;66.14;100238.38;4997032;28;20137;-77
2022/11/06 13:46:10;;;;;;;11.93;5.45;;;;;;;10.04;65.93;100210.44;4997764;28;20185;-78
2022/11/06 13:49:39;;;;;;;5.63;3.38;;;;;;;9.93;66.04;100214.47;4984788;28;20548;-79
2022/11/06 13:53:11;;;;;;;6.03;3.38;;;;;;;10.13;66.41;100209.91;5015071;28;20543;-79
2022/11/06 13:56:51;;;;;;;7.20;2.55;;;;;;;10.19;66.61;100218.25;5015609;28;20522;-78
2022/11/06 14:00:16;;;;;;;5.25;2.70;;;;;;;10.27;66.05;100224.84;5016511;28;20105;-78
2022/11/06 14:03:48;;;;;;;6.55;3.35;;;;;;;10.27;67.49;100230.91;4998785;28;20061;-81
2022/11/06 14:06:56;;;;;;;4.93;3.20;;;;;;;10.22;66.64;100218.09;4972780;28;20162;-78
2022/11/06 14:10:00;;;;;;;5.18;3.15;;;;;;;10.09;66.81;100208.41;4975002;28;20453;-77
2022/11/06 14:13:05;;;;;;;;;;;;;;;10.06;67.14;100206.81;4982575;28;20061;-77
2022/11/06 14:16:21;;;;;;;6.07;3.85;;;;;;;10.07;68.27;100202.41;4988622;28;19945;-78
2022/11/06 14:19:26;;;;;;;8.45;4.53;;;;;;;10.19;67.77;100199.13;4986361;28;20045;-77
2022/11/06 14:22:37;;;;;;;7.22;3.90;;;;;;;10.14;66.78;100211.59;4977373;28;20054;-78
2022/11/06 14:25:40;;;;;;;6.28;3.50;;;;;;;10.10;66.18;100189.19;4978180;28;20427;-78
2022/11/06 14:28:44;;;;;;;9.90;6.15;;;;;;;10.05;67.55;100201.66;4977530;28;20129;-78
2022/11/06 14:32:12;;;;;;;7.05;4.55;;;;;;;10.09;68.08;100206.63;4965805;28;20098;-78
2022/11/06 14:35:28;;;;;;;6.05;3.20;;;;;;;10.11;68.43;100206.53;4977325;28;20053;-79
2022/11/06 14:38:34;;;;;;;6.18;3.40;;;;;;;10.01;67.76;100193.16;4977535;28;20097;-78
2022/11/06 14:41:39;;;;;;;11.98;5.65;;;;;;;10.09;69.25;100196.19;4977399;28;20577;-78
2022/11/06 14:44:46;;;;;;;6.85;3.25;;;;;;;10.04;74.58;100197.38;4977386;28;20070;-78
2022/11/06 14:47:55;;;;;;;5.40;2.63;;;;;;;10.02;74.63;100181.78;4977664;28;20425;-78
2022/11/06 14:51:05;;;;;;;4.85;2.20;;;;;;;9.92;74.88;100178.84;4977505;28;20048;-78
2022/11/06 14:54:23;;;;;;;6.80;2.58;;;;;;;10.01;74.52;100169.63;4965565;28;20046;-78
2022/11/06 14:57:50;;;;;;;7.10;3.75;;;;;;;9.82;68.76;100175.03;4977440;28;20054;-78
2022/11/06 15:01:09;;;;;;;4.00;2.38;;;;;;;9.85;70.83;100174.88;4979138;28;20410;-77
2022/11/06 15:04:18;;;;;;;9.95;5.50;;;;;;;9.77;70.36;100169.22;4980929;28;20053;-79
2022/11/06 15:07:51;;;;;;;8.63;4.63;;;;;;;9.79;73.21;100177.81;4968241;28;20094;-81
2022/11/06 15:11:26;;;;;;;7.63;4.07;;;;;;;9.76;73.82;100176.22;4978110;28;20050;-77
2022/11/06 15:14:29;;;;;;;8.00;4.07;;;;;;;9.68;71.69;100182.78;4975594;28;20507;-78
2022/11/06 15:17:34;;;;;;;5.55;2.53;;;;;;;9.70;72.74;100171.34;4964056;28;20055;-78
2022/11/06 15:20:39;;;;;;;6.90;2.47;;;;;;;9.74;71.52;100157.19;4975749;28;20050;-78
2022/11/06 15:24:11;;;;;;;4.82;2.15;;;;;;;9.63;74.14;100167.34;4976978;28;20097;-79
2022/11/06 15:27:17;;;;;;;5.45;1.90;;;;;;;9.58;74.83;100151.13;4976679;28;20111;-78
2022/11/06 15:30:25;;;;;;;5.22;1.75;;;;;;;9.55;76.20;100148.66;4975470;28;20041;-79
